Time;durP1;ratioP1;P1;durP2;ratioP2;P2;SDS_P1;SDS_P2;PMS_P1;PMS_P2;Temp;Humidity;BMP_temperature;BMP_pressure;BME280_temperature;BME280_humidity;BME280_pressure;Samples;Min_cycle;Max_cycle;Signal;HPM_P1;HPM_P2
2021/05/28 00:00:54;;;;;;;10.70;6.32;;;;;;;7.80;90.32;101576.56;5071453;28;20421;-55
2021/05/28 00:03:20;;;;;;;8.57;5.97;;;;;;;7.78;90.13;101586.09;5068926;28;20101;-52
2021/05/28 00:05:45;;;;;;;12.63;6.05;;;;;;;7.84;90.14;101588.81;5070611;28;20065;-53
2021/05/28 00:08:11;;;;;;;8.95;6.15;;;;;;;7.84;90.31;101574.91;5056112;28;20381;-51
2021/05/28 00:10:36;;;;;;;10.55;6.95;;;;;;;7.80;90.44;101581.78;5070492;28;20051;-53
2021/05/28 00:13:02;;;;;;;14.50;7.00;;;;;;;7.72;90.86;101578.13;5071714;28;20455;-51
2021/05/28 00:15:28;;;;;;;10.00;6.38;;;;;;;7.73;90.73;101585.09;5071577;28;20411;-50
2021/05/28 00:17:54;;;;;;;8.85;5.72;;;;;;;7.86;90.43;101595.78;5072455;28;20579;-51
2021/05/28 00:20:20;;;;;;;8.27;5.65;;;;;;;7.93;89.03;101582.03;5053333;28;20107;-53
2021/05/28 00:22:46;;;;;;;10.18;6.25;;;;;;;7.78;89.27;101588.69;5072532;28;20415;-54
2021/05/28 00:25:12;;;;;;;11.20;5.97;;;;;;;7.75;89.96;101593.81;5070551;28;20131;-52
2021/05/28 00:27:38;;;;;;;10.68;5.95;;;;;;;7.80;89.82;101589.59;5052183;28;20077;-50
2021/05/28 00:30:06;;;;;;;9.82;6.15;;;;;;;7.72;90.29;101595.47;5052709;28;20040;-54
2021/05/28 00:32:33;;;;;;;10.52;6.78;;;;;;;7.71;90.09;101601.53;5069070;28;20525;-50
2021/05/28 00:34:59;;;;;;;11.15;6.25;;;;;;;7.78;90.08;101598.19;5071769;28;20043;-52
2021/05/28 00:37:25;;;;;;;9.48;6.43;;;;;;;7.79;90.08;101590.41;5066651;28;20844;-54
2021/05/28 00:39:51;;;;;;;11.25;6.55;;;;;;;7.76;90.27;101594.69;5070454;28;20036;-52
2021/05/28 00:42:16;;;;;;;10.13;6.53;;;;;;;7.66;90.74;101593.63;5068783;28;20147;-51
2021/05/28 00:44:42;;;;;;;11.52;8.10;;;;;;;7.63;91.20;101591.81;5051235;28;20082;-52
2021/05/28 00:47:08;;;;;;;9.57;6.50;;;;;;;7.69;90.93;101595.41;5073432;28;20040;-50
2021/05/28 00:49:35;;;;;;;9.57;6.25;;;;;;;7.72;89.95;101598.94;5069342;28;20518;-51
2021/05/28 00:52:01;;;;;;;9.90;6.38;;;;;;;7.76;89.94;101600.78;5071315;28;20047;-54
2021/05/28 00:54:27;;;;;;;10.77;6.35;;;;;;;7.79;89.78;101595.63;5066626;28;20547;-55
2021/05/28 00:56:53;;;;;;;12.63;7.20;;;;;;;7.76;90.64;101600.78;5070554;28;20047;-51
2021/05/28 00:59:19;;;;;;;9.82;6.63;;;;;;;7.67;90.77;101611.00;5069140;28;20556;-55
2021/05/28 01:01:47;;;;;;;11.15;6.90;;;;;;;7.66;90.95;101606.63;5072999;28;20051;-55
2021/05/28 01:04:13;;;;;;;10.02;6.75;;;;;;;7.73;89.83;101610.25;5067833;28;20500;-52
2021/05/28 01:06:38;;;;;;;10.90;8.05;;;;;;;7.71;90.25;101618.00;5071416;28;20036;-50
2021/05/28 01:09:07;;;;;;;11.05;7.38;;;;;;;7.66;90.61;101614.44;5052890;28;20866;-54
2021/05/28 01:11:33;;;;;;;12.45;7.88;;;;;;;7.63;90.41;101616.97;5072677;28;20039;-52
2021/05/28 01:13:59;;;;;;;15.05;8.77;;;;;;;7.58;91.01;101616.84;5073386;28;20071;-51
2021/05/28 01:16:25;;;;;;;12.27;7.72;;;;;;;7.53;91.10;101617.59;5071151;28;20119;-51
2021/05/28 01:18:51;;;;;;;12.93;7.82;;;;;;;7.51;91.07;101612.34;5069266;28;20036;-52
2021/05/28 01:21:17;;;;;;;10.63;7.50;;;;;;;7.48;90.67;101615.75;5076128;28;20547;-55
2021/05/28 01:23:43;;;;;;;12.80;8.18;;;;;;;7.43;91.10;101616.50;5068047;28;20097;-51
2021/05/28 01:26:09;;;;;;;12.32;8.32;;;;;;;7.33;90.77;101618.88;5054443;28;20709;-52
2021/05/28 01:28:34;;;;;;;10.63;7.43;;;;;;;7.32;90.59;101618.84;5071433;28;20133;-55
2021/05/28 01:31:00;;;;;;;14.38;9.13;;;;;;;7.44;89.48;101624.34;5053078;28;20484;-51
2021/05/28 01:33:27;;;;;;;11.18;7.78;;;;;;;7.46;88.92;101612.28;5076007;28;20502;-53
2021/05/28 01:35:55;;;;;;;11.55;7.95;;;;;;;7.41;89.26;101608.66;5084344;28;20051;-54
2021/05/28 01:38:21;;;;;;;12.23;8.10;;;;;;;7.15;90.11;101619.31;5068354;28;20362;-54
2021/05/28 01:40:48;;;;;;;11.35;7.82;;;;;;;7.14;89.88;101616.69;5071402;28;20228;-53
2021/05/28 01:43:13;;;;;;;10.52;7.15;;;;;;;7.37;88.39;101614.63;5071146;28;20036;-55
2021/05/28 01:45:39;;;;;;;9.68;6.72;;;;;;;7.31;88.85;101609.28;5070979;28;20250;-53
2021/05/28 01:48:05;;;;;;;11.13;7.25;;;;;;;7.10;89.68;101620.94;5070038;28;20241;-51
2021/05/28 01:50:42;;;;;;;13.55;7.40;;;;;;;7.08;89.58;101620.00;5069476;28;20125;-52
2021/05/28 01:53:19;;;;;;;11.45;6.82;;;;;;;7.10;89.31;101615.75;5069944;28;20162;-52
2021/05/28 01:55:46;;;;;;;12.43;6.80;;;;;;;7.22;88.61;101611.69;5070690;28;21276;-53
2021/05/28 01:58:17;;;;;;;10.70;6.72;;;;;;;7.11;88.21;101614.88;5069460;28;20063;-50
2021/05/28 02:00:43;;;;;;;10.68;7.03;;;;;;;7.12;88.03;101608.84;5054042;28;20036;-52
2021/05/28 02:03:09;;;;;;;11.43;7.05;;;;;;;6.93;88.47;101602.31;5051875;28;20299;-52
2021/05/28 02:05:35;;;;;;;12.73;7.18;;;;;;;6.92;88.54;101610.97;5066932;28;20043;-53
2021/05/28 02:08:02;;;;;;;12.02;7.25;;;;;;;7.08;88.24;101614.81;5070930;28;20042;-52
2021/05/28 02:10:31;;;;;;;11.25;7.55;;;;;;;6.95;87.68;101608.44;5052887;28;20554;-53
2021/05/28 02:12:57;;;;;;;11.05;6.50;;;;;;;7.05;88.03;101606.03;5069304;28;20051;-51
2021/05/28 02:15:24;;;;;;;10.70;7.00;;;;;;;7.02;87.78;101611.19;5069434;28;20130;-52
2021/05/28 02:17:51;;;;;;;11.27;7.18;;;;;;;6.94;87.81;101611.00;5071784;28;20047;-54
2021/05/28 02:20:17;;;;;;;10.63;6.75;;;;;;;6.90;87.49;101611.75;5051565;28;20537;-52
2021/05/28 02:22:42;;;;;;;10.95;7.00;;;;;;;7.24;86.23;101615.19;5071707;28;20027;-53
2021/05/28 02:25:09;;;;;;;11.95;7.22;;;;;;;7.12;86.56;101620.97;5051410;28;20387;-52
2021/05/28 02:27:35;;;;;;;9.63;6.82;;;;;;;7.43;85.50;101627.78;5070474;28;20126;-54
2021/05/28 02:30:01;;;;;;;9.25;6.57;;;;;;;7.64;84.26;101617.00;5058171;28;20054;-54
2021/05/28 02:32:27;;;;;;;17.27;7.72;;;;;;;7.59;84.36;101630.78;5063635;28;20513;-50
2021/05/28 02:34:53;;;;;;;9.95;6.88;;;;;;;6.92;87.14;101630.84;5052208;28;20092;-51
2021/05/28 02:37:19;;;;;;;9.55;6.78;;;;;;;6.68;87.68;101637.19;5068054;28;20038;-54
2021/05/28 02:39:45;;;;;;;12.05;6.90;;;;;;;6.86;87.67;101641.13;5071193;28;20032;-55
2021/05/28 02:42:11;;;;;;;10.65;6.70;;;;;;;6.82;86.91;101638.41;5070167;28;20148;-54
2021/05/28 02:44:37;;;;;;;10.05;6.78;;;;;;;6.62;88.22;101650.03;5068275;28;20123;-52
2021/05/28 02:47:03;;;;;;;10.18;7.10;;;;;;;6.40;89.19;101648.53;5069385;28;20100;-55
2021/05/28 02:49:29;;;;;;;11.90;7.13;;;;;;;6.37;89.35;101651.03;5050565;28;20050;-51
2021/05/28 02:51:55;;;;;;;11.70;7.55;;;;;;;6.35;89.60;101635.41;5073789;28;20041;-52
2021/05/28 02:54:22;;;;;;;12.45;7.68;;;;;;;6.30;89.94;101637.88;5079763;28;20666;-51
2021/05/28 02:56:48;;;;;;;12.88;7.40;;;;;;;6.29;90.03;101645.63;5076214;28;20043;-50
2021/05/28 02:59:13;;;;;;;11.75;7.13;;;;;;;6.31;90.17;101638.75;5071677;28;20449;-51
2021/05/28 03:01:39;;;;;;;10.70;7.00;;;;;;;6.38;90.20;101639.81;5052098;28;20378;-51
2021/05/28 03:04:05;;;;;;;11.13;7.78;;;;;;;6.39;90.49;101641.59;5069383;28;20052;-50
2021/05/28 03:06:31;;;;;;;12.60;6.60;;;;;;;6.32;91.61;101637.94;5049253;28;20048;-52
2021/05/28 03:08:57;;;;;;;11.95;6.75;;;;;;;6.40;90.79;101636.44;5069832;28;20097;-51
2021/05/28 03:11:23;;;;;;;9.15;6.15;;;;;;;6.51;90.03;101638.44;5070966;28;20392;-51
2021/05/28 03:13:48;;;;;;;13.00;7.65;;;;;;;6.39;90.30;101642.44;5059153;28;20044;-50
2021/05/28 03:16:15;;;;;;;9.32;6.38;;;;;;;6.52;89.58;101632.41;5049240;28;20405;-55
2021/05/28 03:18:50;;;;;;;9.73;6.10;;;;;;;6.59;88.67;101630.03;5070713;28;20503;-53
2021/05/28 03:23:49;;;;;;;11.70;6.93;;;;;;;6.30;89.24;101634.41;5065709;28;22813;-52
2021/05/28 03:26:15;;;;;;;9.88;6.40;;;;;;;6.54;89.01;101630.75;5071213;28;20579;-50
2021/05/28 03:28:41;;;;;;;8.88;6.07;;;;;;;6.73;86.73;101634.69;5067104;28;20130;-53
2021/05/28 03:31:07;;;;;;;11.48;6.60;;;;;;;6.52;87.99;101642.78;5068402;28;20159;-54
2021/05/28 03:33:33;;;;;;;9.40;6.28;;;;;;;6.20;88.55;101648.81;5067206;28;20385;-51
2021/05/28 03:35:59;;;;;;;9.85;6.30;;;;;;;6.06;89.55;101657.94;5071644;28;20104;-49
2021/05/28 03:38:25;;;;;;;9.65;6.22;;;;;;;6.20;88.89;101656.63;5055706;28;20396;-50
2021/05/28 03:40:50;;;;;;;9.70;6.53;;;;;;;6.64;87.05;101664.78;5051598;28;21254;-54
2021/05/28 03:43:16;;;;;;;9.57;6.28;;;;;;;7.03;85.76;101667.53;5050949;28;20035;-51
2021/05/28 03:45:42;;;;;;;9.05;6.53;;;;;;;6.79;85.97;101672.13;5068835;28;20547;-53
2021/05/28 03:48:08;;;;;;;11.00;7.07;;;;;;;6.44;87.67;101677.22;5071299;28;20047;-50
2021/05/28 03:50:33;;;;;;;9.38;6.20;;;;;;;6.19;88.78;101674.75;5068544;28;20043;-52
2021/05/28 03:52:59;;;;;;;12.45;6.97;;;;;;;6.05;89.41;101683.03;5071256;28;20043;-53
2021/05/28 03:55:25;;;;;;;10.35;6.22;;;;;;;5.89;89.88;101681.63;5069348;28;20481;-52
2021/05/28 03:57:52;;;;;;;10.23;6.55;;;;;;;5.87;90.15;101685.00;5072451;28;20531;-53
2021/05/28 04:00:18;;;;;;;11.50;7.20;;;;;;;5.84;90.42;101683.19;5073405;28;20032;-53
2021/05/28 04:02:44;;;;;;;9.75;6.70;;;;;;;5.97;89.55;101694.84;5069025;28;20023;-49
2021/05/28 04:05:14;;;;;;;10.07;6.72;;;;;;;6.01;89.45;101681.19;5058531;28;20477;-51
2021/05/28 04:07:39;;;;;;;11.43;6.97;;;;;;;6.02;89.28;101688.09;5068795;28;20506;-51
2021/05/28 04:10:05;;;;;;;11.73;7.43;;;;;;;5.92;89.97;101691.22;5051654;28;20044;-50
2021/05/28 04:12:31;;;;;;;12.15;7.47;;;;;;;5.97;89.99;101694.84;5046839;28;20416;-53
2021/05/28 04:14:57;;;;;;;13.30;7.75;;;;;;;5.86;89.77;101686.75;5064864;28;20043;-50
2021/05/28 04:17:22;;;;;;;10.45;7.88;;;;;;;5.79;90.25;101693.44;5070548;28;20507;-50
2021/05/28 04:19:48;;;;;;;11.75;7.22;;;;;;;5.93;89.56;101693.88;5066628;28;20051;-50
2021/05/28 04:22:14;;;;;;;12.27;7.78;;;;;;;5.91;89.95;101689.47;5069285;28;20044;-54
2021/05/28 04:24:39;;;;;;;12.75;7.53;;;;;;;5.86;90.17;101696.25;5056740;27;20036;-51
2021/05/28 04:27:05;;;;;;;13.90;7.93;;;;;;;5.76;90.50;101690.75;5056546;28;20071;-50
2021/05/28 04:29:31;;;;;;;12.43;8.23;;;;;;;5.92;90.32;101696.44;5071294;28;20032;-55
2021/05/28 04:31:56;;;;;;;13.02;7.65;;;;;;;5.94;90.53;101687.84;5051247;28;20591;-51
2021/05/28 04:34:23;;;;;;;13.88;8.82;;;;;;;6.01;90.95;101695.84;5046071;28;20033;-52
2021/05/28 04:36:49;;;;;;;12.73;7.35;;;;;;;6.13;89.13;101697.13;5031292;28;20941;-54
2021/05/28 04:39:14;;;;;;;11.93;7.70;;;;;;;6.17;89.88;101687.69;5032932;28;20041;-51
2021/05/28 04:41:40;;;;;;;12.02;7.30;;;;;;;6.36;87.98;101689.13;5036679;28;20114;-51
2021/05/28 04:44:07;;;;;;;11.80;7.57;;;;;;;6.21;89.04;101696.47;5051476;28;20200;-50
2021/05/28 04:46:33;;;;;;;13.25;8.55;;;;;;;6.06;90.54;101700.34;5066963;28;20058;-53
2021/05/28 04:48:59;;;;;;;12.13;7.95;;;;;;;6.09;90.52;101708.25;5054204;28;20055;-52
2021/05/28 04:51:24;;;;;;;13.35;8.07;;;;;;;6.22;89.91;101704.28;5074489;28;20040;-53
2021/05/28 04:53:50;;;;;;;14.95;8.40;;;;;;;6.14;90.66;101711.84;5053502;28;20044;-51
2021/05/28 04:56:18;;;;;;;13.20;8.32;;;;;;;6.17;90.54;101711.06;5065086;28;20040;-50
2021/05/28 04:58:43;;;;;;;14.55;8.50;;;;;;;6.22;90.82;101706.88;5074315;28;20338;-50
2021/05/28 05:01:10;;;;;;;12.95;7.95;;;;;;;6.27;90.33;101714.81;5075046;28;20624;-53
2021/05/28 05:03:35;;;;;;;11.27;7.30;;;;;;;6.39;88.87;101724.69;5072021;28;20567;-53
2021/05/28 05:06:01;;;;;;;13.20;8.32;;;;;;;6.51;88.18;101717.25;5064424;28;20055;-52
2021/05/28 05:08:27;;;;;;;13.90;8.48;;;;;;;6.51;89.53;101716.34;5070369;28;20374;-53
2021/05/28 05:10:54;;;;;;;18.15;10.68;;;;;;;6.50;91.10;101720.69;5072347;28;20039;-51
2021/05/28 05:13:20;;;;;;;12.73;8.70;;;;;;;6.52;91.09;101725.91;5053727;28;20047;-50
2021/05/28 05:15:46;;;;;;;23.33;12.55;;;;;;;6.61;92.28;101728.78;5070394;28;20040;-50
2021/05/28 05:18:12;;;;;;;24.77;13.20;;;;;;;6.66;92.04;101727.22;5073911;28;20130;-52
2021/05/28 05:20:37;;;;;;;21.10;11.60;;;;;;;6.73;90.54;101736.03;5041968;28;20039;-54
2021/05/28 05:23:04;;;;;;;25.48;13.50;;;;;;;6.83;91.73;101730.28;5071109;28;20043;-51
2021/05/28 05:25:30;;;;;;;23.98;12.82;;;;;;;6.89;90.46;101726.97;5069911;28;20402;-52
2021/05/28 05:27:56;;;;;;;26.83;14.50;;;;;;;6.96;91.72;101726.28;5071024;28;20404;-54
2021/05/28 05:30:22;;;;;;;29.13;16.27;;;;;;;6.99;91.95;101726.38;5068678;28;20118;-53
2021/05/28 05:32:48;;;;;;;29.30;14.93;;;;;;;7.07;92.97;101723.97;5061811;28;20036;-52
2021/05/28 05:35:14;;;;;;;23.52;13.93;;;;;;;7.14;93.09;101728.50;5068561;28;20518;-52
2021/05/28 05:37:40;;;;;;;32.15;16.95;;;;;;;7.27;93.15;101738.41;5051876;28;20097;-50
2021/05/28 05:40:07;;;;;;;35.33;16.58;;;;;;;7.26;93.06;101734.03;5049646;28;20059;-52
2021/05/28 05:42:38;;;;;;;33.17;16.38;;;;;;;7.35;92.83;101740.31;5046963;28;20072;-52
2021/05/28 05:45:06;;;;;;;27.33;15.65;;;;;;;7.40;92.70;101736.97;5034602;28;20074;-54
2021/05/28 05:47:31;;;;;;;30.75;16.13;;;;;;;7.43;90.43;101741.38;5062288;28;20043;-53
2021/05/28 05:49:57;;;;;;;24.58;13.85;;;;;;;7.50;91.44;101749.41;5067607;28;20506;-53
2021/05/28 05:52:23;;;;;;;34.70;16.15;;;;;;;7.59;91.96;101748.75;5047024;28;20042;-52
2021/05/28 05:54:49;;;;;;;35.90;17.60;;;;;;;7.65;92.86;101748.88;5070441;28;20043;-51
2021/05/28 05:57:14;;;;;;;31.65;15.15;;;;;;;7.70;91.32;101756.81;5070141;28;20129;-55
2021/05/28 05:59:40;;;;;;;31.75;15.27;;;;;;;7.77;92.45;101757.84;5050382;28;20540;-55
2021/05/28 06:02:07;;;;;;;36.22;15.00;;;;;;;7.86;92.14;101755.44;5052508;28;20024;-55
2021/05/28 06:04:33;;;;;;;29.83;15.00;;;;;;;8.05;91.62;101764.59;5069759;28;20052;-51
2021/05/28 06:06:59;;;;;;;31.13;15.60;;;;;;;8.13;90.96;101757.81;5070471;28;20554;-51
2021/05/28 06:09:24;;;;;;;29.27;15.18;;;;;;;8.19;91.32;101763.16;5066681;28;20055;-50
2021/05/28 06:11:50;;;;;;;26.13;13.93;;;;;;;8.26;89.28;101766.78;5053281;28;20460;-52
2021/05/28 06:14:16;;;;;;;30.58;15.10;;;;;;;8.36;89.88;101765.25;5048838;28;20403;-51
2021/05/28 06:16:42;;;;;;;28.92;14.60;;;;;;;8.36;88.99;101770.47;5066708;28;20127;-51
2021/05/28 06:19:07;;;;;;;23.85;13.15;;;;;;;8.44;87.37;101758.50;5066873;28;20500;-54
2021/05/28 06:21:33;;;;;;;26.67;14.93;;;;;;;8.69;88.00;101759.06;5068753;28;20129;-54
2021/05/28 06:24:00;;;;;;;21.90;13.18;;;;;;;8.64;88.26;101753.75;5069632;28;20039;-52
2021/05/28 06:26:26;;;;;;;22.38;12.00;;;;;;;8.62;86.40;101765.00;5067695;28;20040;-52
2021/05/28 06:28:52;;;;;;;22.92;11.50;;;;;;;8.57;87.69;101764.91;5072620;28;20084;-52
2021/05/28 06:31:18;;;;;;;19.67;11.60;;;;;;;8.57;87.87;101772.72;5051078;28;20082;-52
2021/05/28 06:33:44;;;;;;;18.17;9.85;;;;;;;8.97;84.71;101765.72;5067797;28;20060;-53
2021/05/28 06:36:09;;;;;;;21.20;11.55;;;;;;;8.82;86.56;101765.38;5068736;28;20388;-51
2021/05/28 06:38:35;;;;;;;20.23;11.55;;;;;;;8.74;85.67;101767.00;5066943;28;20114;-50
2021/05/28 06:41:01;;;;;;;18.40;10.75;;;;;;;8.78;84.95;101769.69;5071844;28;20123;-51
2021/05/28 06:43:26;;;;;;;15.88;9.10;;;;;;;8.71;84.85;101767.81;5065823;28;20040;-54
2021/05/28 06:45:52;;;;;;;15.65;8.80;;;;;;;8.71;83.78;101770.41;5047435;28;20054;-50
2021/05/28 06:48:18;;;;;;;15.35;8.65;;;;;;;8.85;83.69;101770.69;5068627;28;20050;-52
2021/05/28 06:50:44;;;;;;;15.25;9.00;;;;;;;8.90;82.86;101773.38;5068555;28;20040;-53
2021/05/28 06:53:10;;;;;;;19.48;9.05;;;;;;;8.91;81.72;101777.75;5069186;28;20403;-50
2021/05/28 06:55:37;;;;;;;16.10;8.60;;;;;;;8.96;81.84;101778.72;5066346;28;20087;-49
2021/05/28 06:58:04;;;;;;;18.40;9.48;;;;;;;9.54;80.43;101773.72;5060000;28;20044;-52
2021/05/28 07:00:29;;;;;;;17.00;9.45;;;;;;;9.62;79.26;101779.03;5047709;28;20059;-53
2021/05/28 07:02:55;;;;;;;14.25;9.05;;;;;;;9.44;80.83;101775.28;5063553;28;20507;-53
2021/05/28 07:05:24;;;;;;;15.52;9.35;;;;;;;9.30;82.00;101781.97;5046171;28;20249;-52
2021/05/28 07:07:52;;;;;;;13.80;8.32;;;;;;;9.34;81.11;101775.94;5052685;28;20032;-51
2021/05/28 07:10:19;;;;;;;14.20;8.80;;;;;;;9.28;81.59;101781.06;5049850;27;20191;-53
2021/05/28 07:12:45;;;;;;;12.93;8.18;;;;;;;9.40;79.92;101780.41;5048720;28;20561;-51
2021/05/28 07:15:12;;;;;;;12.27;8.30;;;;;;;9.41;80.49;101777.81;5047662;27;20104;-53
2021/05/28 07:17:38;;;;;;;13.70;7.50;;;;;;;10.00;80.05;101784.03;5050625;27;20038;-52
2021/05/28 07:20:04;;;;;;;12.50;7.32;;;;;;;10.57;77.33;101785.72;5032614;28;20492;-53
2021/05/28 07:22:30;;;;;;;12.13;6.95;;;;;;;10.79;75.77;101782.53;5062212;28;20151;-55
2021/05/28 07:24:56;;;;;;;11.68;6.60;;;;;;;10.27;76.04;101798.34;5068166;28;20070;-53
2021/05/28 07:27:21;;;;;;;12.57;7.35;;;;;;;10.53;77.49;101797.00;5057701;28;20205;-51
2021/05/28 07:29:47;;;;;;;12.20;6.85;;;;;;;10.72;77.31;101792.03;5031257;28;20041;-50
2021/05/28 07:32:13;;;;;;;12.93;6.38;;;;;;;10.36;77.49;101794.16;5051486;28;20047;-52
2021/05/28 07:34:41;;;;;;;10.93;6.63;;;;;;;10.41;75.94;101791.59;5046847;28;20040;-55
2021/05/28 07:37:09;;;;;;;11.50;6.30;;;;;;;10.20;77.57;101797.38;5046307;28;20052;-50
2021/05/28 07:39:35;;;;;;;10.57;6.50;;;;;;;10.84;75.70;101796.53;5051112;28;20045;-52
2021/05/28 07:42:03;;;;;;;12.75;6.53;;;;;;;10.42;76.17;101803.84;5052463;28;20041;-54
2021/05/28 07:44:29;;;;;;;11.32;7.20;;;;;;;10.17;77.26;101800.81;5029469;28;20032;-52
2021/05/28 07:46:56;;;;;;;13.38;6.70;;;;;;;10.12;76.99;101801.59;5050802;28;20630;-53
2021/05/28 07:49:22;;;;;;;13.90;6.45;;;;;;;10.07;77.31;101796.31;5061221;28;20408;-53
2021/05/28 07:51:48;;;;;;;9.55;6.13;;;;;;;9.99;78.32;101792.72;5049209;28;20432;-54
2021/05/28 07:54:16;;;;;;;10.70;5.78;;;;;;;9.93;79.32;101793.50;5055498;28;20599;-51
2021/05/28 07:56:43;;;;;;;9.90;5.85;;;;;;;9.94;78.16;101790.03;5052168;28;20144;-51
2021/05/28 07:59:10;;;;;;;11.70;5.57;;;;;;;10.00;78.20;101792.72;5067647;28;20043;-50
2021/05/28 08:01:36;;;;;;;10.32;5.55;;;;;;;10.00;78.64;101791.88;5024418;28;20036;-54
2021/05/28 08:04:03;;;;;;;9.77;6.28;;;;;;;10.05;77.45;101798.03;5054223;28;20438;-54
2021/05/28 08:06:29;;;;;;;9.07;5.10;;;;;;;10.02;78.54;101791.03;5051811;28;20040;-52
2021/05/28 08:08:56;;;;;;;10.32;5.25;;;;;;;10.04;79.07;101796.28;5048749;27;20093;-52
2021/05/28 08:11:22;;;;;;;10.70;5.55;;;;;;;10.05;77.46;101798.91;5055968;28;20024;-53
2021/05/28 08:13:49;;;;;;;10.32;5.10;;;;;;;10.16;76.02;101796.47;5052441;28;20044;-54
2021/05/28 08:16:15;;;;;;;11.48;5.07;;;;;;;10.29;75.42;101799.28;5052104;28;20036;-52
2021/05/28 08:18:41;;;;;;;9.18;4.75;;;;;;;10.25;76.80;101797.47;5053265;28;20424;-55
2021/05/28 08:21:08;;;;;;;10.90;4.65;;;;;;;10.27;76.02;101794.00;5055267;27;20051;-55
2021/05/28 08:23:34;;;;;;;8.20;4.82;;;;;;;10.37;74.98;101801.16;5054715;27;20036;-53
2021/05/28 08:26:02;;;;;;;8.50;4.57;;;;;;;10.67;75.25;101794.56;5051563;28;20033;-53
2021/05/28 08:28:30;;;;;;;8.38;4.43;;;;;;;10.65;74.91;101791.06;5048039;28;20075;-55
2021/05/28 08:30:55;;;;;;;6.75;4.35;;;;;;;10.71;74.50;101800.72;5060815;28;20713;-56
2021/05/28 08:33:21;;;;;;;7.50;3.83;;;;;;;10.76;75.08;101798.16;5049445;28;20108;-52
2021/05/28 08:35:47;;;;;;;7.10;4.20;;;;;;;10.84;72.09;101786.97;5066413;28;20505;-56
2021/05/28 08:38:13;;;;;;;8.50;4.75;;;;;;;11.50;71.20;101784.16;5072178;28;20059;-54
2021/05/28 08:40:39;;;;;;;7.60;4.53;;;;;;;11.66;71.71;101784.28;5056457;28;20606;-54
2021/05/28 08:43:06;;;;;;;6.90;4.22;;;;;;;12.03;71.07;101784.63;5033771;28;20128;-54
2021/05/28 08:45:50;;;;;;;6.50;4.20;;;;;;;11.90;70.61;101787.13;5048605;28;20318;-53
2021/05/28 08:48:19;;;;;;;7.40;3.67;;;;;;;11.61;70.56;101784.25;5048438;28;20051;-53
2021/05/28 08:50:47;;;;;;;7.38;4.55;;;;;;;11.55;72.32;101787.69;5035791;28;20495;-53
2021/05/28 08:53:14;;;;;;;7.15;3.75;;;;;;;11.62;71.04;101782.53;5051062;28;20574;-55
2021/05/28 08:55:44;;;;;;;8.75;4.47;;;;;;;11.72;70.10;101785.22;5056383;28;20127;-55
2021/05/28 08:58:13;;;;;;;6.72;4.05;;;;;;;11.68;71.56;101787.81;5070782;28;20051;-52
2021/05/28 09:00:42;;;;;;;7.00;4.18;;;;;;;11.87;70.18;101784.47;5076199;28;20043;-53
2021/05/28 09:03:26;;;;;;;6.35;3.97;;;;;;;12.03;69.66;101787.25;5078012;28;20076;-55
2021/05/28 09:05:56;;;;;;;7.10;4.80;;;;;;;11.81;70.35;101784.44;5065442;28;20454;-51
2021/05/28 09:08:35;;;;;;;6.68;3.85;;;;;;;11.95;69.17;101787.19;5065252;28;20031;-54
2021/05/28 09:11:07;;;;;;;5.78;3.67;;;;;;;12.87;62.90;101781.56;5040930;28;21061;-56
2021/05/28 09:13:33;;;;;;;5.28;3.20;;;;;;;12.64;66.91;101778.88;5065643;28;20044;-54
2021/05/28 09:16:10;;;;;;;7.03;3.13;;;;;;;12.92;63.13;101768.47;5061177;28;20036;-54
2021/05/28 09:19:02;;;;;;;6.03;3.00;;;;;;;12.95;66.41;101769.34;5051177;28;20046;-55
2021/05/28 09:21:31;;;;;;;5.57;3.60;;;;;;;12.75;67.95;101761.44;5045295;28;20401;-53
2021/05/28 09:24:01;;;;;;;7.95;4.13;;;;;;;12.86;67.43;101774.59;5058839;28;20064;-54
2021/05/28 09:26:36;;;;;;;8.77;4.80;;;;;;;13.13;65.61;101761.53;5046608;28;20392;-54
2021/05/28 09:29:05;;;;;;;7.40;4.27;;;;;;;12.90;64.48;101757.09;5014135;28;20082;-55
2021/05/28 09:31:32;;;;;;;7.32;3.80;;;;;;;12.59;65.86;101767.47;4990896;28;20516;-52
2021/05/28 09:34:02;;;;;;;6.22;3.83;;;;;;;12.77;67.34;101766.69;5043602;28;20044;-51
2021/05/28 09:36:32;;;;;;;6.97;4.28;;;;;;;12.64;66.27;101772.72;5064480;28;20044;-51
2021/05/28 09:38:58;;;;;;;7.20;4.07;;;;;;;12.60;66.58;101764.00;5014766;28;20043;-53
2021/05/28 09:41:43;;;;;;;7.60;3.60;;;;;;;12.49;66.60;101757.78;5044876;28;20233;-54
2021/05/28 09:44:14;;;;;;;7.05;3.83;;;;;;;12.36;67.33;101764.72;5063366;28;22084;-51
2021/05/28 09:47:10;;;;;;;7.68;3.70;;;;;;;12.56;67.08;101757.84;5037449;28;20039;-55
2021/05/28 09:49:48;;;;;;;6.90;3.88;;;;;;;12.54;66.45;101764.81;5062484;28;20416;-53
2021/05/28 09:52:23;;;;;;;5.13;3.55;;;;;;;13.01;65.94;101751.88;5062336;28;20331;-51
2021/05/28 09:55:12;;;;;;;6.38;3.80;;;;;;;13.86;59.99;101755.50;5068614;28;20031;-55
2021/05/28 09:57:42;;;;;;;4.95;3.30;;;;;;;13.46;61.91;101752.88;5068539;28;20136;-55
2021/05/28 10:00:09;;;;;;;5.38;2.92;;;;;;;13.50;63.09;101756.34;5012592;28;21282;-52
2021/05/28 10:02:42;;;;;;;4.75;3.20;;;;;;;13.33;62.71;101749.28;5067659;28;20039;-52
2021/05/28 10:05:08;;;;;;;4.68;2.70;;;;;;;13.23;63.22;101756.28;5051195;28;20043;-51
2021/05/28 10:07:36;;;;;;;5.13;3.10;;;;;;;13.14;64.09;101752.78;5026640;28;20040;-53
2021/05/28 10:10:04;;;;;;;5.43;3.70;;;;;;;14.25;62.13;101751.03;5043549;28;20043;-55
2021/05/28 10:12:29;;;;;;;4.63;3.10;;;;;;;13.89;57.98;101750.22;5055562;28;20126;-52
2021/05/28 10:14:55;;;;;;;5.10;2.90;;;;;;;13.82;55.89;101747.59;5070776;28;20041;-51
2021/05/28 10:17:22;;;;;;;4.75;3.00;;;;;;;13.65;61.71;101748.47;5058429;28;20032;-55
2021/05/28 10:19:48;;;;;;;6.55;3.00;;;;;;;14.11;58.75;101739.69;5038718;28;20086;-50
2021/05/28 10:22:17;;;;;;;7.35;3.45;;;;;;;14.38;58.98;101737.84;5069291;28;20054;-51
2021/05/28 10:24:44;;;;;;;5.20;3.47;;;;;;;14.57;63.73;101738.66;5075793;28;20063;-52
2021/05/28 10:27:11;;;;;;;5.15;3.13;;;;;;;14.41;59.83;101733.44;5071076;28;20591;-50
2021/05/28 10:29:39;;;;;;;5.15;3.08;;;;;;;14.33;57.22;101734.34;5077291;28;20111;-52
2021/05/28 10:32:12;;;;;;;6.93;2.90;;;;;;;14.44;57.01;101732.53;5079279;28;20126;-49
2021/05/28 10:35:19;;;;;;;4.43;2.83;;;;;;;14.40;56.56;101730.81;5074794;28;20514;-49
2021/05/28 10:37:46;;;;;;;4.63;2.85;;;;;;;14.19;57.61;101734.38;5015175;28;20063;-52
2021/05/28 10:40:28;;;;;;;5.40;2.83;;;;;;;14.37;55.29;101721.19;5069892;28;20056;-50
2021/05/28 10:43:04;;;;;;;5.80;3.20;;;;;;;14.30;57.78;101724.69;5075911;28;20044;-49
2021/05/28 10:46:00;;;;;;;4.80;2.72;;;;;;;14.31;54.92;101729.94;5073498;28;20071;-50
2021/05/28 10:48:42;;;;;;;5.03;2.83;;;;;;;14.21;58.21;101730.00;5072633;28;20128;-50
2021/05/28 10:51:16;;;;;;;4.43;2.60;;;;;;;14.27;56.00;101730.88;5078354;28;20074;-50
2021/05/28 10:53:51;;;;;;;4.72;2.90;;;;;;;14.87;56.00;101720.97;5071541;28;20039;-52
2021/05/28 10:56:18;;;;;;;5.05;3.17;;;;;;;15.64;54.56;101713.38;5078976;28;20043;-53
2021/05/28 10:58:55;;;;;;;5.80;3.95;;;;;;;15.28;56.06;101725.97;5079619;28;20040;-51
2021/05/28 11:01:40;;;;;;;5.97;3.90;;;;;;;15.24;55.94;101715.47;5072105;28;20502;-52
2021/05/28 11:04:11;;;;;;;6.25;4.10;;;;;;;15.17;58.56;101719.91;5043654;28;20476;-53
2021/05/28 11:06:55;;;;;;;7.25;3.97;;;;;;;15.04;57.17;101716.50;5078752;28;20063;-54
2021/05/28 11:09:50;;;;;;;5.88;3.60;;;;;;;15.29;54.28;101714.56;5073478;28;20052;-54
2021/05/28 11:12:25;;;;;;;6.03;3.50;;;;;;;15.65;56.26;101717.75;5075065;28;20047;-51
2021/05/28 11:15:10;;;;;;;6.43;3.35;;;;;;;15.23;56.24;101717.25;5082518;28;20040;-51
2021/05/28 11:18:01;;;;;;;5.78;3.40;;;;;;;15.56;56.22;101712.59;5074772;28;20270;-51
2021/05/28 11:20:35;;;;;;;6.45;3.20;;;;;;;15.76;53.11;101708.91;5075751;28;20320;-51
2021/05/28 11:23:07;;;;;;;5.38;3.20;;;;;;;15.87;51.62;101699.16;5077475;28;20506;-51
2021/05/28 11:25:48;;;;;;;4.55;2.85;;;;;;;15.44;54.38;101708.28;5079500;28;20047;-51
2021/05/28 11:28:14;;;;;;;4.88;3.30;;;;;;;15.09;54.81;101701.53;5078168;28;20055;-53
2021/05/28 11:30:45;;;;;;;5.57;3.25;;;;;;;15.64;51.19;101697.56;5072105;28;20155;-51